Time;durP1;ratioP1;P1;durP2;ratioP2;P2;SDS_P1;SDS_P2;PMS_P1;PMS_P2;Temp;Humidity;BMP_temperature;BMP_pressure;BME280_temperature;BME280_humidity;BME280_pressure;Samples;Min_cycle;Max_cycle;Signal;HPM_P1;HPM_P2
2022/11/13 00:01:23;;;;;;;18.48;8.60;;;;;;;10.19;60.17;102667.41;5002517;28;124919;-69
2022/11/13 00:04:09;;;;;;;15.18;9.15;;;;;;;10.21;60.01;102663.88;5006044;28;124371;-69
2022/11/13 00:06:55;;;;;;;13.82;8.73;;;;;;;10.22;59.75;102665.59;5001100;28;110836;-69
2022/11/13 00:09:44;;;;;;;15.07;8.98;;;;;;;10.23;59.82;102662.06;5002623;28;109566;-69
2022/11/13 00:12:29;;;;;;;16.08;9.13;;;;;;;10.25;60.00;102654.97;4996260;28;124902;-69
2022/11/13 00:15:15;;;;;;;16.90;9.05;;;;;;;10.26;60.30;102646.13;5005684;28;125931;-69
2022/11/13 00:18:01;;;;;;;13.82;8.40;;;;;;;10.27;59.79;102642.59;5003987;28;109713;-68
2022/11/13 00:20:47;;;;;;;14.02;8.68;;;;;;;10.27;59.97;102642.59;5004357;28;109731;-69
2022/11/13 00:23:34;;;;;;;15.80;8.75;;;;;;;10.27;60.10;102634.66;5006942;28;125017;-69
2022/11/13 00:26:25;;;;;;;15.68;9.05;;;;;;;10.28;59.86;102644.34;4985768;28;124783;-69
2022/11/13 00:29:10;;;;;;;15.18;9.23;;;;;;;10.27;59.99;102637.28;5009039;28;109789;-69
2022/11/13 00:31:56;;;;;;;14.95;8.95;;;;;;;10.26;60.15;102635.53;4995930;28;109797;-69
2022/11/13 00:34:41;;;;;;;15.65;8.77;;;;;;;10.26;59.92;102634.66;5002796;28;124794;-69
2022/11/13 00:37:34;;;;;;;17.88;9.35;;;;;;;10.26;59.93;102632.00;5008164;28;124330;-69
2022/11/13 00:40:19;;;;;;;14.80;8.43;;;;;;;10.24;59.81;102634.69;4997441;28;111598;-69
2022/11/13 00:43:05;;;;;;;14.80;8.55;;;;;;;10.21;59.79;102632.09;4992027;28;111180;-69
2022/11/13 00:45:50;;;;;;;16.38;8.93;;;;;;;10.19;60.05;102625.97;5004690;28;125123;-69
2022/11/13 00:48:36;;;;;;;14.93;8.73;;;;;;;10.17;59.94;102625.09;5002256;28;123866;-69
2022/11/13 00:51:22;;;;;;;;;;;;;;;10.14;59.83;102627.78;5000907;28;109904;-69
2022/11/13 00:54:07;;;;;;;15.48;8.75;;;;;;;10.12;59.86;102611.06;4997419;28;109445;-69
2022/11/13 00:56:52;;;;;;;15.73;8.75;;;;;;;10.09;59.73;102621.66;5007467;28;124911;-69
2022/11/13 00:59:38;;;;;;;15.68;8.55;;;;;;;10.05;59.88;102614.69;5002236;28;124728;-69
2022/11/13 01:02:23;;;;;;;15.65;8.48;;;;;;;10.06;59.84;102613.78;5003632;28;110598;-69
2022/11/13 01:05:09;;;;;;;16.90;8.82;;;;;;;10.06;59.84;102611.16;4999737;28;109575;-69
2022/11/13 01:07:54;;;;;;;14.50;8.52;;;;;;;10.05;60.01;102612.03;5011451;28;125026;-69
2022/11/13 01:10:43;;;;;;;14.95;8.52;;;;;;;10.04;59.86;102612.91;4997313;28;124676;-69
2022/11/13 01:13:32;;;;;;;14.70;8.50;;;;;;;10.03;60.09;102600.59;4993413;28;109760;-69
2022/11/13 01:16:25;;;;;;;14.25;8.45;;;;;;;10.03;60.28;102611.19;5002017;28;109604;-69
2022/11/13 01:19:11;;;;;;;15.75;8.23;;;;;;;10.02;60.00;102601.47;4997846;28;124707;-69
2022/11/13 01:21:57;;;;;;;17.13;8.80;;;;;;;10.02;60.11;102604.13;5001604;28;124417;-69
2022/11/13 01:24:42;;;;;;;12.63;7.78;;;;;;;10.03;60.24;102600.59;4999397;28;109580;-69
2022/11/13 01:27:27;;;;;;;17.42;8.85;;;;;;;10.03;60.01;102600.59;4985121;28;109570;-69
2022/11/13 01:30:13;;;;;;;15.73;7.97;;;;;;;10.05;60.34;102598.78;4990029;28;124630;-69
2022/11/13 01:32:58;;;;;;;13.98;8.18;;;;;;;10.05;60.15;102593.50;4997715;28;125281;-69
2022/11/13 01:35:44;;;;;;;12.35;7.97;;;;;;;10.06;60.37;102589.97;5003195;28;110544;-69
2022/11/13 01:38:29;;;;;;;13.70;7.93;;;;;;;10.10;60.12;102596.97;5000093;28;110393;-69
2022/11/13 01:41:24;;;;;;;14.10;7.63;;;;;;;10.14;60.41;102593.38;5006066;28;125176;-69
2022/11/13 01:44:12;;;;;;;11.23;7.28;;;;;;;10.17;60.13;102587.13;5009732;28;124689;-69
2022/11/13 01:46:58;;;;;;;14.25;8.10;;;;;;;10.19;60.58;102590.63;5001447;28;110156;-69
2022/11/13 01:49:45;;;;;;;;;;;;;;;10.19;60.03;102575.66;5005912;28;110297;-69
2022/11/13 01:52:35;;;;;;;14.52;7.80;;;;;;;10.22;59.96;102574.72;4990672;28;124739;-69
2022/11/13 01:55:20;;;;;;;14.57;7.97;;;;;;;10.25;60.45;102578.19;5006014;28;124409;-69
2022/11/13 01:58:09;;;;;;;14.40;8.65;;;;;;;10.27;60.28;102572.88;5008231;28;109907;-69
2022/11/13 02:00:54;;;;;;;12.30;7.80;;;;;;;10.29;60.31;102571.94;4990457;28;109612;-69
2022/11/13 02:03:40;;;;;;;12.80;7.65;;;;;;;10.31;60.13;102564.00;5005951;28;124847;-69
2022/11/13 02:06:31;;;;;;;13.23;8.30;;;;;;;10.33;60.31;102563.06;5011570;28;124405;-69
2022/11/13 02:09:20;;;;;;;12.35;7.30;;;;;;;10.36;60.63;102555.97;5006726;28;108995;-69
2022/11/13 02:12:09;;;;;;;14.30;7.95;;;;;;;10.40;60.21;102565.66;5004708;28;109800;-69
2022/11/13 02:14:56;;;;;;;14.55;7.88;;;;;;;10.42;59.97;102561.19;5007104;28;125349;-70
2022/11/13 02:17:47;;;;;;;11.40;7.97;;;;;;;10.44;60.49;102554.09;4996140;28;124380;-69
2022/11/13 02:20:52;;;;;;;14.63;7.95;;;;;;;10.46;60.25;102557.59;5002785;28;109747;-69
2022/11/13 02:24:00;;;;;;;13.43;7.68;;;;;;;10.49;60.53;102552.22;5005134;28;109850;-69
2022/11/13 02:26:49;;;;;;;12.45;7.90;;;;;;;10.52;60.34;102552.16;5007284;28;124701;-69
2022/11/13 02:29:34;;;;;;;16.30;8.25;;;;;;;10.54;60.35;102545.06;4995417;28;125122;-69
2022/11/13 02:32:20;;;;;;;13.95;7.80;;;;;;;10.60;60.32;102544.94;5010821;28;111358;-69
2022/11/13 02:35:06;;;;;;;;;;;;;;;10.59;60.41;102548.53;5006457;28;111171;-70
2022/11/13 02:37:53;;;;;;;10.93;7.28;;;;;;;10.62;60.13;102543.16;4991887;28;125663;-69
2022/11/13 02:40:39;;;;;;;12.82;7.93;;;;;;;10.63;59.87;102544.91;5006677;28;124732;-69
2022/11/13 02:43:24;;;;;;;12.38;7.63;;;;;;;10.64;60.07;102546.66;4994524;28;109596;-69
2022/11/13 02:46:10;;;;;;;12.65;7.80;;;;;;;10.63;59.86;102542.25;4994743;28;109547;-69
2022/11/13 02:48:55;;;;;;;12.43;7.57;;;;;;;10.62;59.72;102532.56;4996649;28;125432;-69
2022/11/13 02:51:41;;;;;;;10.88;7.53;;;;;;;10.61;60.06;102536.13;4996488;28;125053;-69
2022/11/13 02:54:26;;;;;;;11.45;7.70;;;;;;;10.60;59.91;102534.34;4989836;28;109975;-69
2022/11/13 02:57:12;;;;;;;11.40;7.43;;;;;;;10.60;59.83;102534.34;4993490;28;109805;-69
2022/11/13 02:59:57;;;;;;;11.38;7.43;;;;;;;10.59;59.76;102529.97;4999497;28;124403;-69
2022/11/13 03:02:42;;;;;;;13.45;7.55;;;;;;;10.56;59.76;102532.66;5005319;28;124700;-69
2022/11/13 03:05:28;;;;;;;12.05;7.85;;;;;;;10.57;59.90;102539.72;5010992;28;109792;-69
2022/11/13 03:08:14;;;;;;;12.18;7.57;;;;;;;10.55;59.64;102535.34;5003186;28;109423;-69
2022/11/13 03:11:06;;;;;;;12.60;7.30;;;;;;;10.52;59.90;102531.84;5003315;28;124926;-69
2022/11/13 03:13:52;;;;;;;10.23;7.15;;;;;;;10.51;59.87;102534.53;5003694;28;124414;-69
2022/11/13 03:16:38;;;;;;;12.77;7.70;;;;;;;10.51;59.87;102529.25;5000079;28;109733;-69
2022/11/13 03:19:23;;;;;;;11.30;7.53;;;;;;;10.49;59.54;102525.72;4998903;28;109736;-70
2022/11/13 03:22:08;;;;;;;11.63;7.30;;;;;;;10.47;59.42;102527.53;5007112;28;125745;-69
2022/11/13 03:24:54;;;;;;;13.40;7.50;;;;;;;10.43;59.42;102517.91;5009000;28;124412;-69
2022/11/13 03:27:39;;;;;;;13.20;7.57;;;;;;;10.42;59.58;102514.38;5005758;28;111021;-69
2022/11/13 03:30:26;;;;;;;12.23;7.55;;;;;;;10.42;59.58;102524.09;4996175;28;111067;-69
2022/11/13 03:33:11;;;;;;;11.73;7.65;;;;;;;10.40;59.78;102507.38;5009504;28;124670;-69
2022/11/13 03:35:57;;;;;;;12.98;7.47;;;;;;;10.43;59.51;102520.53;5007771;28;125488;-69
2022/11/13 03:38:42;;;;;;;14.30;8.02;;;;;;;10.42;59.66;102514.38;5006272;28;110056;-69
2022/11/13 03:41:28;;;;;;;11.95;7.15;;;;;;;10.44;59.57;102511.72;5008144;28;109876;-70
2022/11/13 03:44:13;;;;;;;13.73;8.23;;;;;;;10.44;59.60;102520.53;4993294;28;125656;-69
2022/11/13 03:46:59;;;;;;;11.07;7.32;;;;;;;10.46;59.56;102509.91;4991281;28;124537;-69
2022/11/13 03:49:44;;;;;;;11.75;7.40;;;;;;;10.47;59.53;102509.00;5008865;28;109767;-69
2022/11/13 03:52:29;;;;;;;14.40;8.05;;;;;;;10.50;59.43;102498.34;5006830;28;109696;-69
2022/11/13 03:55:15;;;;;;;11.10;7.13;;;;;;;10.52;59.31;102493.91;4992566;28;124855;-69
2022/11/13 03:58:00;;;;;;;12.93;7.55;;;;;;;10.53;59.14;102498.31;4998285;28;124426;-69
2022/11/13 04:00:47;;;;;;;10.65;7.32;;;;;;;10.53;59.10;102495.66;5008643;28;109909;-69
2022/11/13 04:03:32;;;;;;;13.35;7.93;;;;;;;10.54;59.18;102491.22;5003126;28;109675;-69
2022/11/13 04:06:18;;;;;;;14.18;7.47;;;;;;;10.54;59.10;102481.50;4992143;28;124894;-69
2022/11/13 04:09:03;;;;;;;14.80;7.10;;;;;;;10.54;58.94;102485.91;4989571;28;124460;-69
2022/11/13 04:11:49;;;;;;;16.52;7.88;;;;;;;10.53;59.08;102485.06;5006760;28;109758;-68
2022/11/13 04:14:35;;;;;;;11.43;7.22;;;;;;;10.52;58.85;102478.00;5009640;28;109962;-69
2022/11/13 04:17:20;;;;;;;11.90;7.90;;;;;;;10.50;58.80;102474.50;4991621;28;125140;-70
2022/11/13 04:20:07;;;;;;;12.52;7.55;;;;;;;10.46;58.83;102468.38;5009283;28;124661;-70
2022/11/13 04:22:54;;;;;;;12.25;7.80;;;;;;;10.44;58.76;102464.91;4985561;28;110699;-70
2022/11/13 04:25:39;;;;;;;12.80;7.95;;;;;;;10.41;59.00;102464.06;4998099;28;110792;-70
2022/11/13 04:28:25;;;;;;;11.50;7.50;;;;;;;10.38;59.02;102464.13;5006101;28;126106;-70
2022/11/13 04:31:12;;;;;;;14.75;8.57;;;;;;;10.38;59.02;102458.81;5003264;28;124697;-70
2022/11/13 04:33:57;;;;;;;11.57;7.90;;;;;;;10.35;59.00;102458.91;5003098;28;109995;-70
2022/11/13 04:36:43;;;;;;;12.88;7.93;;;;;;;10.32;59.00;102450.13;4998684;28;109570;-70
2022/11/13 04:39:28;;;;;;;14.20;7.88;;;;;;;10.31;58.76;102453.66;5001659;28;124665;-70
2022/11/13 04:45:20;;;;;;;13.82;7.78;;;;;;;10.26;58.89;102460.75;5008271;28;109979;-70
2022/11/13 04:48:06;;;;;;;13.00;7.53;;;;;;;10.24;58.86;102459.91;5003126;28;109748;-70
2022/11/13 04:50:51;;;;;;;11.65;7.68;;;;;;;10.21;58.58;102452.03;4982527;28;124730;-70
2022/11/13 04:53:37;;;;;;;13.05;7.60;;;;;;;10.17;58.76;102455.66;5000827;28;124535;-70
2022/11/13 04:56:22;;;;;;;12.52;8.02;;;;;;;10.13;58.79;102456.56;5002758;28;109929;-70
2022/11/13 04:59:08;;;;;;;12.40;8.05;;;;;;;10.09;58.71;102441.66;4986311;28;109913;-70
2022/11/13 05:01:54;;;;;;;12.85;7.97;;;;;;;10.06;58.56;102436.44;5004371;28;125345;-70
2022/11/13 05:04:40;;;;;;;12.55;7.95;;;;;;;10.03;58.92;102441.75;5002048;28;125215;-70
2022/11/13 05:07:26;;;;;;;12.93;7.70;;;;;;;9.97;58.70;102431.28;5008906;28;110062;-70
2022/11/13 05:10:11;;;;;;;11.60;7.80;;;;;;;9.92;58.76;102429.56;5007273;28;109616;-69
2022/11/13 05:12:57;;;;;;;;;;;;;;;9.86;58.65;102429.69;5003813;28;124830;-69
2022/11/13 05:15:42;;;;;;;14.15;7.80;;;;;;;9.84;58.76;102426.19;4998921;28;125456;-69
2022/11/13 05:18:29;;;;;;;;;;;;;;;9.78;58.95;102426.28;5003856;28;110970;-69
2022/11/13 05:21:15;;;;;;;13.85;8.60;;;;;;;9.76;58.58;102428.09;4997452;28;110771;-69
2022/11/13 05:24:02;;;;;;;13.60;8.27;;;;;;;9.73;59.02;102417.56;5001332;28;124784;-69
2022/11/13 05:26:47;;;;;;;15.45;7.95;;;;;;;9.71;58.78;102414.06;5007902;28;124712;-69
2022/11/13 05:29:33;;;;;;;15.43;8.40;;;;;;;9.68;59.35;102408.81;5005584;28;110060;-70
2022/11/13 05:32:18;;;;;;;14.02;8.02;;;;;;;9.66;58.97;102400.03;4986829;28;109779;-69
2022/11/13 05:35:04;;;;;;;13.82;8.05;;;;;;;9.65;59.02;102393.00;5006100;28;125310;-70
2022/11/13 05:37:49;;;;;;;11.55;7.68;;;;;;;9.62;59.02;102387.75;4997432;28;124593;-69
2022/11/13 05:40:35;;;;;;;13.27;7.43;;;;;;;9.58;59.30;102386.91;5004218;28;110734;-69
2022/11/13 05:43:20;;;;;;;13.90;7.45;;;;;;;9.55;58.94;102385.22;5000112;28;109369;-69
2022/11/13 05:46:30;;;;;;;11.63;7.47;;;;;;;9.53;59.23;102384.38;5008063;28;124783;-69
2022/11/13 05:49:15;;;;;;;13.10;7.20;;;;;;;9.52;59.24;102387.91;4993414;28;124511;-70
2022/11/13 05:52:01;;;;;;;12.70;7.55;;;;;;;9.51;59.11;102378.22;5004223;28;110307;-70
2022/11/13 05:54:46;;;;;;;12.70;7.38;;;;;;;9.52;59.40;102379.97;5005555;28;109811;-70
2022/11/13 05:57:32;;;;;;;11.60;6.90;;;;;;;9.53;59.43;102372.88;5006733;28;125205;-69
2022/11/13 06:00:18;;;;;;;9.95;7.00;;;;;;;9.54;59.15;102379.94;5007387;28;124626;-70
2022/11/13 06:03:03;;;;;;;;;;;;;;;9.53;59.19;102383.47;5003040;28;109934;-70
2022/11/13 06:05:48;;;;;;;10.73;6.72;;;;;;;9.54;58.95;102375.50;5016203;28;109379;-69
2022/11/13 06:08:34;;;;;;;11.60;6.70;;;;;;;9.53;59.33;102373.78;5008652;28;125086;-69
2022/11/13 06:11:22;;;;;;;11.63;7.22;;;;;;;9.53;59.00;102376.44;4991019;28;124468;-69
2022/11/13 06:14:08;;;;;;;10.70;6.63;;;;;;;9.52;59.10;102366.72;5008000;28;111514;-70
2022/11/13 06:16:53;;;;;;;10.50;6.85;;;;;;;9.51;59.12;102365.00;5012508;28;111053;-69
2022/11/13 06:19:39;;;;;;;10.50;6.82;;;;;;;9.50;59.03;102368.53;5007938;28;124773;-69
2022/11/13 06:22:26;;;;;;;9.23;6.72;;;;;;;9.50;58.81;102357.97;5011998;28;125065;-69
2022/11/13 06:25:11;;;;;;;11.50;6.57;;;;;;;9.48;58.84;102354.47;5006308;28;110965;-69
2022/11/13 06:27:57;;;;;;;11.55;6.10;;;;;;;9.50;58.49;102352.66;4993834;28;109625;-69
2022/11/13 06:30:42;;;;;;;10.57;6.15;;;;;;;9.50;58.91;102347.38;5005315;28;124874;-69
2022/11/13 06:33:28;;;;;;;11.50;6.45;;;;;;;9.50;58.70;102359.72;5007446;28;125000;-69
2022/11/13 06:36:19;;;;;;;9.05;5.70;;;;;;;9.49;58.79;102350.94;5005021;28;110120;-69
2022/11/13 06:39:06;;;;;;;11.85;6.00;;;;;;;9.48;58.62;102351.81;5005549;28;109845;-70
2022/11/13 06:41:52;;;;;;;8.93;5.95;;;;;;;9.48;58.58;102354.47;5000728;28;124733;-70
2022/11/13 06:44:38;;;;;;;8.70;5.18;;;;;;;9.45;58.33;102354.50;4999395;28;125077;-70
2022/11/13 06:47:23;;;;;;;8.98;5.13;;;;;;;9.41;58.28;102358.09;5007586;28;110695;-70
2022/11/13 06:50:08;;;;;;;9.13;5.25;;;;;;;9.38;58.33;102358.16;4999262;28;110197;-70
2022/11/13 06:52:54;;;;;;;7.95;5.20;;;;;;;9.36;58.60;102349.34;4993134;28;124802;-70
2022/11/13 06:55:48;;;;;;;8.10;5.47;;;;;;;9.35;58.17;102358.19;5007957;28;124732;-70
2022/11/13 06:58:34;;;;;;;9.32;4.97;;;;;;;9.32;58.94;102347.66;5004982;28;109996;-70
2022/11/13 07:01:20;;;;;;;;;;;;;;;9.29;58.39;102353.03;4996491;28;109738;-69
2022/11/13 07:04:11;;;;;;;10.25;5.00;;;;;;;9.29;58.80;102342.44;4996228;28;125572;-70
2022/11/13 07:06:56;;;;;;;9.52;5.40;;;;;;;9.30;58.69;102349.47;5006171;28;125767;-70
2022/11/13 07:09:42;;;;;;;7.55;4.93;;;;;;;9.31;58.78;102356.50;5006046;28;110919;-70
2022/11/13 07:12:28;;;;;;;7.50;4.75;;;;;;;9.32;58.70;102352.94;4993739;28;110677;-70
2022/11/13 07:15:15;;;;;;;8.20;4.85;;;;;;;9.33;58.76;102349.44;4999495;28;124716;-70
2022/11/13 07:18:01;;;;;;;10.48;5.18;;;;;;;9.34;58.49;102345.88;5006562;28;125191;-70
2022/11/13 07:20:47;;;;;;;10.70;5.72;;;;;;;9.36;58.50;102349.34;5001461;28;110108;-70
2022/11/13 07:23:33;;;;;;;;;;;;;;;9.35;58.42;102348.50;5014316;28;109787;-72
2022/11/13 07:26:19;;;;;;;9.52;4.80;;;;;;;9.39;58.43;102354.59;5008825;28;125146;-71
2022/11/13 07:29:04;;;;;;;7.75;4.90;;;;;;;9.40;58.35;102348.44;4998643;28;124392;-71
2022/11/13 07:31:50;;;;;;;10.25;5.25;;;;;;;9.41;58.59;102347.53;4997514;28;109619;-70
2022/11/13 07:34:36;;;;;;;;;;;;;;;9.41;58.44;102344.88;5007407;28;109709;-70
2022/11/13 07:37:21;;;;;;;7.80;4.72;;;;;;;9.44;58.36;102347.47;4993931;28;124757;-70
2022/11/13 07:40:07;;;;;;;8.15;5.18;;;;;;;9.44;58.58;102342.19;4992908;28;124763;-70
2022/11/13 07:42:58;;;;;;;9.20;5.00;;;;;;;9.45;58.33;102337.78;4998471;28;109280;-70
2022/11/13 07:45:43;;;;;;;8.00;4.60;;;;;;;9.47;58.53;102341.25;4998993;28;109794;-71
2022/11/13 07:48:29;;;;;;;8.02;4.63;;;;;;;9.50;58.46;102331.50;4981321;28;125489;-71
2022/11/13 07:51:15;;;;;;;7.85;5.18;;;;;;;9.55;58.71;102334.97;5005445;28;124366;-71
2022/11/13 07:54:01;;;;;;;8.45;5.18;;;;;;;9.62;58.70;102330.41;4994126;28;114809;-71
2022/11/13 07:56:47;;;;;;;8.25;5.30;;;;;;;9.68;58.65;102332.09;5003118;28;114874;-71
2022/11/13 07:59:32;;;;;;;;;;;;;;;9.70;58.72;102332.94;5009730;28;125130;-71
2022/11/13 08:02:18;;;;;;;9.90;5.40;;;;;;;9.74;58.62;102332.00;4982947;28;124709;-71
2022/11/13 08:05:10;;;;;;;9.05;5.03;;;;;;;9.78;58.95;102331.03;4980120;28;115914;-71
2022/11/13 08:07:56;;;;;;;8.98;5.18;;;;;;;9.83;58.89;102342.44;4993180;28;115584;-71
2022/11/13 08:10:42;;;;;;;;;;;;;;;9.87;58.89;102330.88;4982544;28;125154;-71
2022/11/13 08:13:27;;;;;;;8.77;5.18;;;;;;;9.97;58.69;102336.00;4998447;28;124940;-71
2022/11/13 08:16:13;;;;;;;9.93;5.15;;;;;;;10.05;59.00;102334.06;5006247;28;115374;-71
2022/11/13 08:18:58;;;;;;;6.80;5.05;;;;;;;10.14;58.70;102333.91;4996183;28;115349;-72
2022/11/13 08:21:44;;;;;;;8.05;5.00;;;;;;;10.21;59.15;102324.94;4989262;28;124922;-71
2022/11/13 08:24:29;;;;;;;8.07;5.00;;;;;;;10.30;58.55;102330.09;4989258;28;125200;-71
2022/11/13 08:27:15;;;;;;;8.65;5.47;;;;;;;10.38;58.58;102321.09;4992297;28;115077;-71
2022/11/13 08:30:00;;;;;;;8.20;5.82;;;;;;;10.45;58.56;102322.72;5021943;28;114627;-71
2022/11/13 08:32:46;;;;;;;10.13;6.20;;;;;;;10.52;58.78;102324.34;4970953;28;124696;-71
2022/11/13 08:35:32;;;;;;;10.23;6.20;;;;;;;10.57;58.65;102319.84;4990621;28;124991;-71
2022/11/13 08:38:17;;;;;;;7.65;5.75;;;;;;;10.63;58.97;102322.34;4984081;28;114787;-71
2022/11/13 08:41:05;;;;;;;11.18;5.88;;;;;;;10.69;58.83;102321.34;4987891;28;115004;-71
2022/11/13 08:43:54;;;;;;;6.20;3.92;;;;;;;10.77;58.96;102318.53;5001111;28;124609;-72
2022/11/13 08:46:40;;;;;;;8.38;5.55;;;;;;;10.84;58.84;102320.13;5004311;28;96718;-71
2022/11/13 08:49:26;;;;;;;9.32;6.00;;;;;;;10.92;58.77;102318.16;4990488;28;114995;-72
2022/11/13 08:52:11;;;;;;;10.18;5.50;;;;;;;10.99;58.91;102314.47;5005676;28;114643;-71
2022/11/13 08:54:57;;;;;;;8.40;6.03;;;;;;;11.06;58.77;102308.13;4994088;28;123669;-71
2022/11/13 08:57:43;;;;;;;9.38;6.20;;;;;;;11.16;58.71;102302.63;5016745;28;125247;-72
2022/11/13 09:00:30;;;;;;;9.57;5.50;;;;;;;11.24;58.80;102303.28;5002279;28;116003;-72
2022/11/13 09:03:16;;;;;;;9.80;5.63;;;;;;;11.32;58.77;102296.03;4988943;28;115891;-72
2022/11/13 09:06:06;;;;;;;10.68;5.65;;;;;;;11.41;58.91;102301.09;4993748;28;124839;-71
2022/11/13 09:08:52;;;;;;;10.40;6.13;;;;;;;11.52;58.60;102292.00;5003236;28;124744;-71
2022/11/13 09:11:37;;;;;;;8.77;5.55;;;;;;;11.61;58.95;102291.75;4998648;28;114631;-71
2022/11/13 09:14:23;;;;;;;8.43;5.55;;;;;;;11.73;58.67;102286.09;5004371;28;113830;-71
2022/11/13 09:17:09;;;;;;;8.40;5.60;;;;;;;11.85;58.44;102295.56;4997366;28;124869;-71
2022/11/13 09:19:54;;;;;;;7.47;5.25;;;;;;;11.97;58.53;102295.22;5015449;28;124760;-71
2022/11/13 09:22:46;;;;;;;8.88;5.40;;;;;;;12.11;58.66;102292.22;4997547;28;114825;-72
2022/11/13 09:25:35;;;;;;;7.35;4.70;;;;;;;12.23;58.14;102283.03;4995677;28;115136;-72
2022/11/13 09:28:22;;;;;;;7.95;3.80;;;;;;;12.35;58.34;102284.44;5008470;28;125585;-71
2022/11/13 09:31:08;;;;;;;5.95;4.20;;;;;;;12.48;58.11;102285.81;5001325;28;124671;-72
2022/11/13 09:33:54;;;;;;;6.60;4.10;;;;;;;12.60;57.82;102280.16;4988405;28;114660;-72
2022/11/13 09:36:39;;;;;;;6.55;5.13;;;;;;;12.76;57.80;102279.66;5011325;27;114656;-72
2022/11/13 09:39:24;;;;;;;8.23;5.30;;;;;;;12.88;57.90;102276.59;4992967;28;124666;-71
2022/11/13 09:42:18;;;;;;;7.80;5.25;;;;;;;12.99;57.66;102277.13;4991501;28;125328;-72
2022/11/13 09:45:09;;;;;;;7.30;5.30;;;;;;;13.12;57.56;102277.63;5001816;28;115089;-72
2022/11/13 09:47:57;;;;;;;7.32;5.00;;;;;;;13.25;57.51;102275.41;4996721;28;114397;-71
2022/11/13 09:50:42;;;;;;;9.25;4.93;;;;;;;13.37;57.35;102277.72;4997791;28;124888;-72
2022/11/13 09:53:34;;;;;;;7.30;5.10;;;;;;;13.49;57.07;102270.25;5000492;28;125004;-72
2022/11/13 09:56:25;;;;;;;7.45;5.13;;;;;;;13.62;57.07;102268.88;4998414;28;115961;-72
2022/11/13 09:59:35;;;;;;;6.63;4.82;;;;;;;13.74;56.82;102271.09;5026174;28;115796;-71
2022/11/13 10:02:30;;;;;;;9.93;5.32;;;;;;;13.88;56.83;102261.75;5011156;28;124780;-72
2022/11/13 10:05:49;;;;;;;6.55;4.65;;;;;;;14.02;56.72;102262.13;5012658;28;124487;-72
2022/11/13 10:08:57;;;;;;;6.07;4.15;;;;;;;14.19;56.63;102267.69;4992682;28;114653;-72
2022/11/13 10:11:51;;;;;;;4.88;3.38;;;;;;;14.35;55.74;102257.34;4999642;28;114896;-72
2022/11/13 10:14:44;;;;;;;5.60;3.45;;;;;;;14.49;55.17;102259.47;4992596;28;125187;-72
2022/11/13 10:17:40;;;;;;;4.95;3.58;;;;;;;14.63;54.38;102260.75;4992251;28;124536;-72
2022/11/13 10:20:37;;;;;;;7.90;3.35;;;;;;;14.78;54.29;102265.47;4977123;28;114983;-72
2022/11/13 10:23:36;;;;;;;6.60;3.42;;;;;;;14.93;54.00;102259.50;4991792;28;114680;-72
2022/11/13 10:26:26;;;;;;;5.95;3.60;;;;;;;15.08;53.66;102249.16;5006615;28;125195;-72
2022/11/13 10:29:16;;;;;;;5.88;3.42;;;;;;;15.21;53.26;102247.72;4991417;28;124694;-72
2022/11/13 10:32:14;;;;;;;4.63;3.17;;;;;;;15.35;53.11;102250.69;4991622;28;114633;-72
2022/11/13 10:35:21;;;;;;;4.32;3.28;;;;;;;15.49;53.23;102246.53;4976586;28;114718;-72
2022/11/13 10:38:43;;;;;;;4.38;3.15;;;;;;;15.67;53.17;102243.06;5000108;28;125117;-72
2022/11/13 10:41:29;;;;;;;7.35;3.20;;;;;;;15.83;52.83;102237.06;4990707;28;124589;-72
2022/11/13 10:44:19;;;;;;;;;;;;;;;15.93;53.55;102225.03;4993630;28;114645;-72
2022/11/13 10:47:18;;;;;;;6.03;3.53;;;;;;;16.06;52.69;102236.88;5012123;28;114349;-72
2022/11/13 10:50:26;;;;;;;4.82;3.67;;;;;;;16.18;52.58;102229.25;4990590;28;125266;-72
2022/11/13 10:53:16;;;;;;;3.65;2.97;;;;;;;16.29;51.83;102229.59;5011009;28;124593;-72
2022/11/13 10:56:25;;;;;;;5.18;3.30;;;;;;;16.39;52.03;102225.56;4989750;28;115707;-72
2022/11/13 10:59:14;;;;;;;4.40;2.95;;;;;;;16.52;51.05;102224.03;4994133;28;115588;-72
2022/11/13 11:02:17;;;;;;;4.45;3.28;;;;;;;16.65;51.03;102226.13;4999610;28;124712;-72
2022/11/13 11:05:17;;;;;;;5.05;3.38;;;;;;;16.78;50.76;102224.56;4998349;28;125365;-72
2022/11/13 11:08:08;;;;;;;5.30;3.80;;;;;;;16.91;50.41;102219.53;4990439;28;114638;-72
2022/11/13 11:14:24;;;;;;;5.35;3.38;;;;;;;17.10;50.35;102211.44;4991034;28;124610;-73
2022/11/13 11:17:12;;;;;;;4.22;3.03;;;;;;;17.18;50.09;102195.88;4996569;28;125191;-73
2022/11/13 11:20:22;;;;;;;5.55;3.30;;;;;;;17.29;49.61;102200.63;5003722;28;114946;-72
2022/11/13 11:23:14;;;;;;;6.50;3.45;;;;;;;17.41;49.40;102199.16;5004647;28;115133;-72
2022/11/13 11:26:15;;;;;;;5.10;3.58;;;;;;;17.47;49.24;102190.78;5003368;28;124823;-72
2022/11/13 11:29:11;;;;;;;6.10;3.60;;;;;;;17.55;48.84;102187.72;4993122;28;124988;-72
2022/11/13 11:32:12;;;;;;;6.10;3.50;;;;;;;17.60;48.91;102189.19;5004187;28;114680;-72
2022/11/13 11:35:07;;;;;;;4.10;3.22;;;;;;;17.68;48.33;102189.63;4997754;28;114880;-73
2022/11/13 11:38:10;;;;;;;5.70;3.25;;;;;;;17.76;48.58;102180.34;5003148;28;124903;-72
2022/11/13 11:41:05;;;;;;;3.97;3.13;;;;;;;17.85;48.44;102185.22;4991900;28;124382;-72
2022/11/13 11:44:01;;;;;;;8.00;3.65;;;;;;;17.91;48.25;102176.84;4991959;28;114385;-72
2022/11/13 11:46:46;;;;;;;4.15;3.17;;;;;;;18.01;48.17;102179.91;4995119;28;113987;-72
2022/11/13 11:49:32;;;;;;;4.68;3.00;;;;;;;18.09;47.97;102173.16;5007102;28;125342;-72
2022/11/13 11:52:31;;;;;;;;;;;;;;;18.14;49.21;102169.34;5010783;28;124542;-72
2022/11/13 11:55:28;;;;;;;4.05;2.75;;;;;;;18.23;48.21;102158.09;5014984;28;116423;-72
2022/11/13 11:58:33;;;;;;;4.68;3.22;;;;;;;18.30;47.55;102154.13;5002458;28;115795;-72
2022/11/13 12:01:44;;;;;;;4.50;3.20;;;;;;;18.30;47.35;102148.78;5006477;28;125089;-72
2022/11/13 12:05:13;;;;;;;4.22;3.10;;;;;;;18.32;46.88;102146.88;5006719;28;125132;-72
2022/11/13 12:08:11;;;;;;;5.80;3.15;;;;;;;18.37;47.03;102139.44;5009797;28;114892;-75
2022/11/13 12:11:06;;;;;;;4.88;2.85;;;;;;;18.40;46.70;102128.53;4999041;28;114409;-72
2022/11/13 12:14:14;;;;;;;6.40;3.05;;;;;;;18.45;46.49;102131.78;5009617;28;125181;-72
2022/11/13 12:17:32;;;;;;;4.82;2.80;;;;;;;18.53;46.56;102122.44;5004750;28;124558;-72
2022/11/13 12:20:35;;;;;;;4.05;2.90;;;;;;;18.59;46.83;102116.72;4987495;28;115358;-73
2022/11/13 12:23:29;;;;;;;3.97;2.78;;;;;;;18.67;46.26;102119.81;4996799;28;114479;-73
2022/11/13 12:26:21;;;;;;;4.45;2.80;;;;;;;18.72;46.08;102112.34;4992544;28;125723;-72
2022/11/13 12:29:31;;;;;;;4.03;3.13;;;;;;;18.79;46.13;102108.34;4995412;28;125483;-72
2022/11/13 12:32:48;;;;;;;4.22;3.13;;;;;;;18.85;46.15;102102.66;4994002;28;114775;-73
2022/11/13 12:35:34;;;;;;;5.38;2.92;;;;;;;18.92;45.58;102097.78;4992074;28;114647;-73
2022/11/13 12:38:34;;;;;;;4.75;2.90;;;;;;;18.97;45.44;102089.47;4987760;28;124665;-73
2022/11/13 12:41:25;;;;;;;7.82;3.00;;;;;;;19.04;45.52;102093.47;4994387;28;124530;-72
2022/11/13 12:44:43;;;;;;;4.20;2.47;;;;;;;19.09;45.39;102088.69;5002896;28;115331;-73
2022/11/13 12:47:29;;;;;;;4.97;2.65;;;;;;;19.15;45.01;102092.81;4991398;28;114635;-73
2022/11/13 12:50:27;;;;;;;4.05;2.63;;;;;;;19.19;45.05;102083.63;4997925;28;124825;-73
2022/11/13 12:53:25;;;;;;;6.53;2.70;;;;;;;19.21;44.65;102082.59;4993905;28;124449;-73
2022/11/13 12:56:23;;;;;;;4.63;2.63;;;;;;;19.26;44.52;102074.22;4997018;28;116895;-72
2022/11/13 12:59:19;;;;;;;5.30;2.85;;;;;;;19.30;43.81;102074.91;4993446;28;115424;-73
2022/11/13 13:02:41;;;;;;;4.50;2.80;;;;;;;19.33;44.19;102066.66;4986333;28;125018;-72
2022/11/13 13:06:08;;;;;;;4.28;3.30;;;;;;;19.36;44.12;102058.41;4987437;28;125276;-72